createdAt,value
2019-01-27T00:02:28.711Z,23.40
2019-01-27T00:05:04.866Z,24.07
2019-01-27T00:07:36.825Z,21.70
2019-01-27T00:10:12.730Z,23.03
2019-01-27T00:12:45.880Z,20.00
2019-01-27T00:15:19.995Z,19.92
2019-01-27T00:17:52.162Z,26.73
2019-01-27T00:20:26.072Z,28.57
2019-01-27T00:22:57.355Z,19.63
2019-01-27T00:25:28.614Z,23.20
2019-01-27T00:28:02.250Z,21.87
2019-01-27T00:30:36.158Z,21.27
2019-01-27T00:33:12.461Z,22.77
2019-01-27T00:35:44.032Z,19.20
2019-01-27T00:38:17.183Z,25.30
2019-01-27T00:40:49.346Z,19.10
2019-01-27T00:43:21.457Z,17.93
2019-01-27T00:45:54.215Z,21.53
2019-01-27T00:48:28.425Z,18.70
2019-01-27T00:51:00.079Z,23.90
2019-01-27T00:53:34.256Z,22.03
2019-01-27T00:56:06.916Z,19.60
2019-01-27T00:58:42.506Z,19.17
2019-01-27T01:01:14.171Z,23.02
2019-01-27T01:03:46.230Z,21.20
2019-01-27T01:06:20.434Z,20.37
2019-01-27T01:08:54.238Z,21.20
2019-01-27T01:11:29.835Z,19.62
2019-01-27T01:14:03.929Z,22.10
2019-01-27T01:16:36.485Z,20.45
2019-01-27T01:19:10.851Z,20.10
2019-01-27T01:21:44.324Z,22.30
2019-01-27T01:24:17.295Z,23.10
2019-01-27T01:26:50.486Z,24.03
2019-01-27T01:29:23.433Z,22.13
2019-01-27T01:31:57.507Z,24.73
2019-01-27T01:34:31.612Z,25.80
2019-01-27T01:37:05.928Z,24.07
2019-01-27T01:39:39.679Z,31.47
2019-01-27T01:42:13.350Z,24.20
2019-01-27T01:44:46.394Z,21.23
2019-01-27T01:47:18.531Z,23.67
2019-01-27T01:49:52.504Z,24.27
2019-01-27T01:52:26.492Z,21.90
2019-01-27T01:55:00.415Z,23.03
2019-01-27T01:57:32.482Z,23.23
2019-01-27T02:00:06.702Z,25.23
2019-01-27T02:02:39.612Z,26.20
2019-01-27T02:05:14.721Z,23.70
2019-01-27T02:07:47.994Z,28.00
2019-01-27T02:10:21.890Z,25.47
2019-01-27T02:12:54.636Z,23.00
2019-01-27T02:16:07.415Z,21.17
2019-01-27T02:18:43.140Z,23.07
2019-01-27T02:21:14.415Z,21.63
2019-01-27T02:23:47.588Z,23.70
2019-01-27T02:26:23.161Z,25.10
2019-01-27T02:28:54.486Z,25.23
2019-01-27T02:31:26.691Z,23.27
2019-01-27T02:33:57.948Z,25.23
2019-01-27T02:36:31.785Z,26.30
2019-01-27T02:39:09.120Z,24.03
2019-01-27T02:41:42.665Z,23.83
2019-01-27T02:44:13.985Z,26.33
2019-01-27T02:46:48.437Z,18.80
2019-01-27T02:49:20.671Z,21.62
2019-01-27T02:51:52.706Z,23.60
2019-01-27T02:54:28.140Z,21.90
2019-01-27T02:57:00.805Z,18.77
2019-01-27T02:59:35.346Z,20.60
2019-01-27T03:02:12.125Z,17.98
2019-01-27T03:04:44.766Z,19.53
2019-01-27T03:07:35.260Z,23.32
2019-01-27T03:10:12.718Z,27.97
2019-01-27T03:12:45.896Z,28.50
2019-01-27T03:15:18.723Z,34.98
2019-01-27T03:17:50.913Z,25.67
2019-01-27T03:20:23.793Z,27.87
2019-01-27T03:22:55.998Z,25.20
2019-01-27T03:25:29.953Z,26.55
2019-01-27T03:28:04.206Z,25.40
2019-01-27T03:30:35.858Z,23.50
2019-01-27T03:33:09.055Z,26.57
2019-01-27T03:35:43.687Z,22.57
2019-01-27T03:38:18.254Z,30.53
2019-01-27T03:40:51.235Z,28.07
2019-01-27T03:43:24.966Z,25.37
2019-01-27T03:45:57.943Z,29.33
2019-01-27T03:48:30.957Z,25.30
2019-01-27T03:51:04.765Z,28.73
2019-01-27T03:53:38.084Z,25.87
2019-01-27T03:56:13.915Z,29.47
2019-01-27T03:58:48.869Z,29.00
2019-01-27T04:01:21.284Z,25.62
2019-01-27T04:03:54.333Z,27.80
2019-01-27T04:06:25.610Z,23.93
2019-01-27T04:08:59.074Z,26.07
2019-01-27T04:11:31.963Z,28.92
2019-01-27T04:14:04.105Z,24.70
2019-01-27T04:16:35.349Z,28.53
2019-01-27T04:19:09.296Z,26.97
2019-01-27T04:21:42.859Z,31.30
2019-01-27T04:24:15.737Z,31.62
2019-01-27T04:26:47.215Z,25.80
2019-01-27T04:29:18.670Z,23.65
2019-01-27T04:31:49.970Z,27.77
2019-01-27T04:34:23.097Z,27.50
2019-01-27T04:36:54.538Z,32.03
2019-01-27T04:39:28.159Z,26.95
2019-01-27T04:41:59.417Z,25.53
2019-01-27T04:44:31.130Z,23.53
2019-01-27T04:47:02.405Z,26.57
2019-01-27T04:49:35.341Z,29.40
2019-01-27T04:52:09.387Z,34.08
2019-01-27T04:54:41.744Z,26.07
2019-01-27T04:57:13.523Z,30.93
2019-01-27T04:59:44.831Z,35.20
2019-01-27T05:02:16.075Z,31.17
2019-01-27T05:04:51.168Z,25.08
2019-01-27T05:07:23.144Z,32.08
2019-01-27T05:09:54.482Z,30.47
2019-01-27T05:12:25.749Z,40.40
2019-01-27T05:14:59.478Z,203.10
2019-01-27T05:17:33.329Z,101.00
2019-01-27T05:20:13.698Z,56.17
2019-01-27T05:22:47.435Z,54.80
2019-01-27T05:25:22.743Z,49.25
2019-01-27T05:27:55.597Z,50.23
2019-01-27T05:30:27.109Z,76.50
2019-01-27T05:33:02.824Z,43.60
2019-01-27T05:35:34.585Z,48.38
2019-01-27T05:38:10.693Z,67.90
2019-01-27T05:40:42.497Z,56.80
2019-01-27T05:43:14.070Z,141.03
2019-01-27T05:45:47.805Z,197.97
2019-01-27T05:48:19.474Z,227.23
2019-01-27T05:50:53.437Z,173.17
2019-01-27T05:53:26.550Z,208.87
2019-01-27T05:56:00.986Z,174.00
2019-01-27T05:58:34.152Z,158.97
2019-01-27T06:01:07.623Z,171.90
2019-01-27T06:03:39.870Z,96.50
2019-01-27T06:06:18.382Z,180.63
2019-01-27T06:08:50.922Z,126.33
2019-01-27T06:11:32.119Z,170.77
2019-01-27T06:14:13.000Z,212.37
2019-01-27T06:16:50.675Z,217.90
2019-01-27T06:19:28.158Z,202.93
2019-01-27T06:22:03.498Z,165.13
2019-01-27T06:24:37.885Z,310.60
2019-01-27T06:27:09.945Z,288.47
2019-01-27T06:29:43.726Z,295.90
2019-01-27T06:32:30.424Z,242.40
2019-01-27T06:35:06.921Z,109.22
2019-01-27T06:37:38.326Z,168.90
2019-01-27T06:40:11.933Z,102.07
2019-01-27T06:42:47.508Z,171.87
2019-01-27T06:45:22.657Z,191.25
2019-01-27T06:47:56.556Z,118.50
2019-01-27T06:50:29.952Z,122.60
2019-01-27T06:53:01.992Z,132.10
2019-01-27T06:55:34.969Z,110.07
2019-01-27T06:58:10.012Z,94.63
2019-01-27T07:01:04.873Z,120.67
2019-01-27T07:04:03.243Z,99.53
2019-01-27T07:07:10.053Z,114.70
2019-01-27T07:10:05.292Z,96.10
2019-01-27T07:13:09.261Z,132.20
2019-01-27T07:15:59.901Z,146.37
2019-01-27T07:19:06.104Z,134.60
2019-01-27T07:22:15.037Z,122.40
2019-01-27T07:25:12.552Z,81.97
2019-01-27T07:28:09.860Z,96.93
2019-01-27T07:31:11.949Z,114.80
2019-01-27T07:34:06.035Z,145.97
2019-01-27T07:36:57.279Z,133.73
2019-01-27T07:39:44.279Z,86.60
2019-01-27T07:42:28.827Z,102.50
2019-01-27T07:45:33.233Z,92.53
2019-01-27T07:48:22.978Z,98.97
2019-01-27T07:51:16.871Z,86.50
2019-01-27T07:54:06.548Z,98.27
2019-01-27T07:56:58.635Z,85.07
2019-01-27T07:59:57.713Z,118.93
2019-01-27T08:02:56.812Z,102.15
2019-01-27T08:05:51.283Z,127.75
2019-01-27T08:08:46.126Z,125.70
2019-01-27T08:11:40.342Z,96.87
2019-01-27T08:14:33.065Z,61.60
2019-01-27T08:17:24.554Z,71.90
2019-01-27T08:20:19.080Z,73.27
2019-01-27T08:23:20.235Z,53.13
2019-01-27T08:26:25.299Z,86.67
2019-01-27T08:29:04.807Z,91.67
2019-01-27T08:32:02.488Z,72.97
2019-01-27T08:35:03.230Z,82.43
2019-01-27T08:37:52.445Z,92.77
2019-01-27T08:40:35.848Z,63.20
2019-01-27T08:43:30.522Z,59.10
2019-01-27T08:46:19.942Z,52.93
2019-01-27T08:48:56.919Z,43.57
2019-01-27T08:51:33.962Z,91.27
2019-01-27T08:54:17.281Z,53.60
2019-01-27T08:57:01.532Z,42.73
2019-01-27T08:59:40.344Z,41.20
2019-01-27T09:02:46.102Z,66.90
2019-01-27T09:05:42.750Z,51.87
2019-01-27T09:08:35.996Z,56.63
2019-01-27T09:11:30.746Z,38.17
2019-01-27T09:14:22.558Z,54.42
2019-01-27T09:17:11.327Z,29.50
2019-01-27T09:20:10.176Z,19.27
2019-01-27T09:23:12.548Z,20.77
2019-01-27T09:26:09.579Z,19.17
2019-01-27T09:29:18.289Z,27.33
2019-01-27T09:32:21.800Z,19.07
2019-01-27T09:35:18.818Z,17.30
2019-01-27T09:38:05.873Z,20.03
2019-01-27T09:40:56.597Z,20.60
2019-01-27T09:43:41.336Z,21.17
2019-01-27T09:46:25.088Z,22.62
2019-01-27T09:49:10.749Z,26.33
2019-01-27T09:52:07.548Z,24.90
2019-01-27T09:54:56.391Z,24.40
2019-01-27T09:58:03.577Z,24.75
2019-01-27T10:00:49.748Z,26.37
2019-01-27T10:03:53.674Z,25.67
2019-01-27T10:06:46.196Z,23.97
2019-01-27T10:09:33.184Z,23.07
2019-01-27T10:12:21.266Z,23.10
2019-01-27T10:15:12.937Z,27.77
2019-01-27T10:18:00.457Z,29.20
2019-01-27T10:20:52.998Z,31.03
2019-01-27T10:23:49.793Z,25.00
2019-01-27T10:26:43.150Z,30.37
2019-01-27T10:29:34.371Z,23.97
2019-01-27T10:32:22.267Z,30.80
2019-01-27T10:35:01.467Z,26.90
2019-01-27T10:37:44.830Z,28.27
2019-01-27T10:40:31.354Z,25.87
2019-01-27T10:43:28.382Z,31.90
2019-01-27T10:46:18.760Z,29.70
2019-01-27T10:49:14.286Z,28.40
2019-01-27T10:52:01.879Z,26.63
2019-01-27T10:54:58.709Z,29.53
2019-01-27T10:57:40.317Z,50.27
2019-01-27T11:00:43.831Z,28.80
2019-01-27T11:03:23.841Z,26.73
2019-01-27T11:06:17.563Z,36.33
2019-01-27T11:09:08.766Z,24.10
2019-01-27T11:12:05.957Z,22.70
2019-01-27T11:15:06.192Z,24.30
2019-01-27T11:17:49.597Z,25.20
2019-01-27T11:20:46.103Z,27.60
2019-01-27T11:23:31.860Z,28.00
2019-01-27T11:26:21.977Z,26.63
2019-01-27T11:29:02.862Z,24.63
2019-01-27T11:32:00.238Z,25.17
2019-01-27T11:34:49.398Z,26.60
2019-01-27T11:37:43.886Z,28.83
2019-01-27T11:40:30.495Z,30.50
2019-01-27T11:43:22.081Z,29.63
2019-01-27T11:46:33.569Z,27.43
2019-01-27T11:49:37.093Z,37.60
2019-01-27T11:52:18.672Z,32.27
2019-01-27T11:54:50.950Z,27.13
2019-01-27T11:57:24.281Z,27.98
2019-01-27T11:59:55.839Z,30.60
2019-01-27T12:02:29.335Z,31.50
2019-01-27T12:05:02.975Z,41.80
2019-01-27T12:07:34.944Z,35.50
2019-01-27T12:10:11.931Z,26.43
2019-01-27T12:12:44.758Z,38.63
2019-01-27T12:15:20.482Z,31.75
2019-01-27T12:17:53.077Z,32.30
2019-01-27T12:20:24.359Z,32.70
2019-01-27T12:22:59.707Z,31.60
2019-01-27T12:25:33.146Z,30.43
2019-01-27T12:28:06.287Z,36.93
2019-01-27T12:30:37.542Z,37.03
2019-01-27T12:33:08.878Z,32.60
2019-01-27T12:35:40.381Z,37.40
2019-01-27T12:38:13.284Z,36.55
2019-01-27T12:40:48.857Z,36.93
2019-01-27T12:43:21.298Z,35.95
2019-01-27T12:45:55.345Z,37.10
2019-01-27T12:48:28.712Z,32.77
2019-01-27T12:51:01.867Z,35.73
2019-01-27T12:53:34.280Z,35.13
2019-01-27T12:56:07.656Z,34.63
2019-01-27T12:58:39.286Z,38.43
2019-01-27T13:01:13.695Z,33.07
2019-01-27T13:03:46.395Z,40.03
2019-01-27T13:06:18.412Z,35.73
2019-01-27T13:08:51.445Z,40.50
2019-01-27T13:11:22.768Z,35.90
2019-01-27T13:13:54.125Z,31.17
2019-01-27T13:16:27.436Z,29.43
2019-01-27T13:19:01.605Z,28.77
2019-01-27T13:21:35.775Z,21.70
2019-01-27T13:24:09.716Z,19.10
2019-01-27T13:26:43.328Z,22.75
2019-01-27T13:29:15.503Z,25.07
2019-01-27T13:31:48.676Z,22.20
2019-01-27T13:34:22.609Z,20.57
2019-01-27T13:36:55.582Z,22.20
2019-01-27T13:39:29.553Z,23.05
2019-01-27T13:42:01.550Z,25.60
2019-01-27T13:44:34.679Z,31.10
2019-01-27T13:47:05.989Z,33.47
2019-01-27T13:49:38.818Z,31.00
2019-01-27T13:52:10.611Z,32.20
2019-01-27T13:54:41.949Z,40.50
2019-01-27T13:57:13.548Z,30.63
2019-01-27T13:59:47.124Z,35.00
2019-01-27T14:02:19.670Z,34.80
2019-01-27T14:04:51.889Z,29.75
2019-01-27T14:07:26.532Z,32.48
2019-01-27T14:09:58.331Z,32.50
2019-01-27T14:12:30.292Z,31.20
2019-01-27T14:15:01.591Z,36.60
2019-01-27T14:17:34.877Z,24.93
2019-01-27T14:20:10.959Z,32.57
2019-01-27T14:22:42.878Z,32.80
2019-01-27T14:25:16.599Z,33.00
2019-01-27T14:27:52.089Z,35.55
2019-01-27T14:30:31.916Z,30.87
2019-01-27T14:33:06.149Z,33.20
2019-01-27T14:35:38.001Z,25.57
2019-01-27T14:38:10.574Z,27.27
2019-01-27T14:40:43.792Z,32.67
2019-01-27T14:43:16.728Z,32.45
2019-01-27T14:45:50.902Z,26.73
2019-01-27T14:48:25.718Z,23.63
2019-01-27T14:50:58.842Z,23.20
2019-01-27T14:53:30.475Z,19.27
2019-01-27T14:56:03.982Z,20.17
2019-01-27T14:58:39.571Z,23.37
2019-01-27T15:01:12.027Z,17.97
2019-01-27T15:03:46.037Z,19.70
2019-01-27T15:06:17.798Z,19.12
2019-01-27T15:08:50.061Z,31.47
2019-01-27T15:11:21.349Z,25.85
2019-01-27T15:13:52.969Z,20.62
2019-01-27T15:16:25.959Z,20.63
2019-01-27T15:18:58.128Z,22.17
2019-01-27T15:21:32.009Z,25.67
2019-01-27T15:24:06.182Z,23.73
2019-01-27T15:26:39.110Z,27.67
2019-01-27T15:29:11.016Z,40.10
2019-01-27T15:31:44.986Z,37.57
2019-01-27T15:34:20.642Z,47.70
2019-01-27T15:36:51.957Z,48.23
2019-01-27T15:39:27.641Z,47.57
2019-01-27T15:42:00.023Z,48.70
2019-01-27T15:44:34.106Z,57.60
2019-01-27T15:47:05.893Z,64.07
2019-01-27T15:49:39.194Z,125.73
2019-01-27T15:52:11.309Z,95.10
2019-01-27T15:54:44.250Z,53.87
2019-01-27T15:57:15.599Z,62.33
2019-01-27T15:59:49.317Z,55.13
2019-01-27T16:02:21.114Z,67.33
2019-01-27T16:04:54.253Z,81.77
2019-01-27T16:07:27.124Z,57.78
2019-01-27T16:09:59.318Z,59.17
2019-01-27T16:12:33.309Z,61.83
2019-01-27T16:15:10.201Z,67.40
2019-01-27T16:17:46.074Z,78.67
2019-01-27T16:20:18.300Z,80.00
2019-01-27T16:23:26.639Z,84.90
2019-01-27T16:26:00.765Z,93.50
2019-01-27T16:28:33.318Z,80.90
2019-01-27T16:31:33.209Z,82.02
2019-01-27T16:34:17.007Z,88.20
2019-01-27T16:36:48.266Z,88.97
2019-01-27T16:39:21.528Z,98.45
2019-01-27T16:41:55.047Z,91.67
2019-01-27T16:44:27.407Z,95.63
2019-01-27T16:47:01.548Z,85.13
2019-01-27T16:49:37.031Z,92.20
2019-01-27T16:52:08.738Z,98.97
2019-01-27T16:54:42.689Z,120.50
2019-01-27T16:57:14.332Z,106.17
2019-01-27T16:59:47.567Z,114.47
2019-01-27T17:02:19.045Z,108.30
2019-01-27T17:04:54.065Z,109.67
2019-01-27T17:07:26.666Z,110.25
2019-01-27T17:10:00.619Z,102.73
2019-01-27T17:12:34.557Z,103.67
2019-01-27T17:15:09.774Z,110.00
2019-01-27T17:17:42.930Z,111.53
2019-01-27T17:20:16.905Z,104.57
2019-01-27T17:22:50.647Z,119.07
2019-01-27T17:25:23.019Z,104.20
2019-01-27T17:27:55.611Z,109.70
2019-01-27T17:30:27.905Z,114.50
2019-01-27T17:33:01.063Z,110.67
2019-01-27T17:35:35.463Z,109.67
2019-01-27T17:38:08.670Z,115.90
2019-01-27T17:40:42.895Z,107.67
2019-01-27T17:43:15.597Z,105.70
2019-01-27T17:45:47.683Z,93.57
2019-01-27T17:48:20.772Z,110.77
2019-01-27T17:50:52.702Z,112.40
2019-01-27T17:53:24.137Z,105.00
2019-01-27T17:55:56.050Z,115.10
2019-01-27T17:58:54.362Z,102.70
2019-01-27T18:01:43.683Z,118.93
2019-01-27T18:04:41.608Z,112.03
2019-01-27T18:07:26.191Z,103.47
2019-01-27T18:10:04.085Z,123.57
2019-01-27T18:12:42.121Z,114.73
2019-01-27T18:15:14.182Z,102.43
2019-01-27T18:17:47.665Z,107.00
2019-01-27T18:20:19.407Z,96.63
2019-01-27T18:22:52.853Z,123.67
2019-01-27T18:25:28.742Z,144.23
2019-01-27T18:28:01.881Z,185.13
2019-01-27T18:30:34.918Z,194.93
2019-01-27T18:33:09.001Z,179.30
2019-01-27T18:35:42.227Z,258.90
2019-01-27T18:38:14.065Z,436.05
2019-01-27T18:40:47.905Z,314.83
2019-01-27T18:43:23.489Z,240.03
2019-01-27T18:45:56.137Z,258.47
2019-01-27T18:48:28.089Z,300.93
2019-01-27T18:51:02.798Z,195.50
2019-01-27T18:53:59.695Z,150.10
2019-01-27T18:56:43.593Z,177.67
2019-01-27T18:59:30.888Z,171.77
2019-01-27T19:02:23.097Z,162.85
2019-01-27T19:05:02.489Z,161.27
2019-01-27T19:07:51.303Z,138.30
2019-01-27T19:10:46.825Z,134.63
2019-01-27T19:13:30.456Z,191.53
2019-01-27T19:16:15.556Z,148.30
2019-01-27T19:19:24.225Z,134.73
2019-01-27T19:22:20.015Z,132.43
2019-01-27T19:25:13.039Z,128.35
2019-01-27T19:28:03.277Z,119.10
2019-01-27T19:30:44.306Z,110.22
2019-01-27T19:33:34.944Z,112.23
2019-01-27T19:36:27.490Z,119.10
2019-01-27T19:39:38.755Z,107.03
2019-01-27T19:42:33.476Z,116.90
2019-01-27T19:45:31.810Z,122.33
2019-01-27T19:48:11.462Z,111.00
2019-01-27T19:50:56.521Z,118.50
2019-01-27T19:53:47.325Z,133.83
2019-01-27T19:56:32.979Z,107.55
2019-01-27T19:59:15.072Z,123.37
2019-01-27T20:02:08.257Z,108.95
2019-01-27T20:05:00.273Z,124.83
2019-01-27T20:08:03.996Z,119.30
2019-01-27T20:11:03.838Z,114.35
2019-01-27T20:13:51.879Z,98.65
2019-01-27T20:16:43.924Z,109.57
2019-01-27T20:19:33.261Z,113.87
2019-01-27T20:22:13.106Z,97.53
2019-01-27T20:25:00.320Z,123.07
2019-01-27T20:27:50.740Z,106.90
2019-01-27T20:31:00.266Z,115.20
2019-01-27T20:33:58.236Z,100.03
2019-01-27T20:36:53.991Z,115.33
2019-01-27T20:39:34.305Z,109.03
2019-01-27T20:42:19.402Z,107.73
2019-01-27T20:45:08.833Z,117.37
2019-01-27T20:48:16.400Z,119.20
2019-01-27T20:51:13.748Z,119.40
2019-01-27T20:54:00.562Z,129.87
2019-01-27T20:56:57.762Z,132.47
2019-01-27T20:59:53.042Z,112.47
2019-01-27T21:02:42.426Z,121.02
2019-01-27T21:05:30.359Z,139.30
2019-01-27T21:08:20.587Z,126.03
2019-01-27T21:11:13.833Z,116.47
2019-01-27T21:14:04.432Z,117.63
2019-01-27T21:17:13.009Z,130.43
2019-01-27T21:19:51.572Z,133.00
2019-01-27T21:22:24.589Z,136.00
2019-01-27T21:24:57.470Z,121.63
2019-01-27T21:27:30.639Z,153.83
2019-01-27T21:30:02.234Z,139.83
2019-01-27T21:32:35.613Z,147.80
2019-01-27T21:35:10.630Z,127.90
2019-01-27T21:37:43.949Z,132.03
2019-01-27T21:40:18.265Z,139.37
2019-01-27T21:42:51.721Z,137.10
2019-01-27T21:45:23.079Z,128.97
2019-01-27T21:47:54.326Z,148.17
2019-01-27T21:50:27.770Z,133.63
2019-01-27T21:53:01.747Z,116.80
2019-01-27T21:55:35.742Z,144.60
2019-01-27T21:58:09.751Z,125.70
2019-01-27T22:00:43.684Z,141.37
2019-01-27T22:03:14.990Z,120.75
2019-01-27T22:05:46.295Z,119.50
2019-01-27T22:08:19.715Z,131.10
2019-01-27T22:10:53.802Z,120.97
2019-01-27T22:13:27.767Z,125.00
2019-01-27T22:16:00.890Z,137.03
2019-01-27T22:18:32.339Z,119.33
2019-01-27T22:21:04.021Z,137.07
2019-01-27T22:23:36.930Z,120.37
2019-01-27T22:26:09.813Z,120.67
2019-01-27T22:28:42.926Z,128.90
2019-01-27T22:31:15.737Z,119.93
2019-01-27T22:33:46.992Z,132.30
2019-01-27T22:36:20.791Z,141.83
2019-01-27T22:38:52.050Z,129.00
2019-01-27T22:41:24.927Z,129.80
2019-01-27T22:43:56.967Z,127.90
2019-01-27T22:46:30.583Z,130.63
2019-01-27T22:49:01.843Z,111.30
2019-01-27T22:51:34.998Z,140.20
2019-01-27T22:54:07.093Z,134.83
2019-01-27T22:56:40.040Z,128.93
2019-01-27T22:59:11.326Z,117.90
2019-01-27T23:01:45.405Z,131.10
2019-01-27T23:04:19.294Z,142.20
2019-01-27T23:06:53.903Z,112.63
2019-01-27T23:09:27.145Z,121.30
2019-01-27T23:12:00.054Z,129.03
2019-01-27T23:14:32.459Z,130.67
2019-01-27T23:17:06.413Z,128.77
2019-01-27T23:19:38.136Z,129.43
2019-01-27T23:22:10.156Z,137.43
2019-01-27T23:24:44.080Z,122.10
2019-01-27T23:27:15.760Z,140.33
2019-01-27T23:29:49.212Z,132.30
2019-01-27T23:32:24.808Z,132.13
2019-01-27T23:34:57.273Z,131.37
2019-01-27T23:37:31.223Z,129.53
2019-01-27T23:40:06.229Z,141.50
2019-01-27T23:42:39.209Z,135.20
2019-01-27T23:45:13.332Z,135.23
2019-01-27T23:47:46.241Z,127.17
2019-01-27T23:50:19.354Z,122.23
2019-01-27T23:52:53.298Z,124.50
2019-01-27T23:55:25.189Z,125.07
2019-01-27T23:57:57.084Z,147.80
